Terminal Aerodrome Forecast
Issued by NWS Bismarck, ND

Home | Current Version | Previous Version | Text Only | Print | Product List | Glossary On
Versions: 1 2 3 4 5 6 7 8 9 10 11 12 13 14 15
000
FTUS43 KBIS 310500
TAFISN
TAF
KISN 310533Z 3106/0106 10007KT P6SM -TSRA SCT080 OVC100CB
     FM311200 14007KT P6SM VCSH BKN100
     FM311600 15009KT P6SM SCT100
     FM010100 09009KT P6SM SKC=

USA.gov is the U.S. government's official web portal to all federal, state and local government web resources and services.